sensor_id;sensor_type;location;lat;lon;timestamp;P1;durP1;ratioP1;P2;durP2;ratioP2
50880;SDS011;36858;47.832;-3.800;2022-07-29T00:01:02;8.23;;;2.23;;
50880;SDS011;36858;47.832;-3.800;2022-07-29T00:03:29;2.53;;;1.40;;
50880;SDS011;36858;47.832;-3.800;2022-07-29T00:05:56;1.37;;;1.10;;
50880;SDS011;36858;47.832;-3.800;2022-07-29T00:08:25;7.73;;;1.43;;
50880;SDS011;36858;47.832;-3.800;2022-07-29T00:10:52;2.30;;;1.00;;
50880;SDS011;36858;47.832;-3.800;2022-07-29T00:13:19;1.93;;;0.97;;
50880;SDS011;36858;47.832;-3.800;2022-07-29T00:15:58;3.13;;;1.50;;
50880;SDS011;36858;47.832;-3.800;2022-07-29T00:18:30;3.13;;;1.07;;
50880;SDS011;36858;47.832;-3.800;2022-07-29T00:20:58;3.83;;;1.23;;
50880;SDS011;36858;47.832;-3.800;2022-07-29T00:23:25;2.10;;;1.00;;
50880;SDS011;36858;47.832;-3.800;2022-07-29T00:25:52;2.27;;;1.83;;
50880;SDS011;36858;47.832;-3.800;2022-07-29T00:28:19;3.63;;;1.33;;
50880;SDS011;36858;47.832;-3.800;2022-07-29T00:30:46;3.37;;;0.97;;
50880;SDS011;36858;47.832;-3.800;2022-07-29T00:33:13;5.27;;;1.43;;
50880;SDS011;36858;47.832;-3.800;2022-07-29T00:35:40;3.40;;;1.20;;
50880;SDS011;36858;47.832;-3.800;2022-07-29T00:38:16;2.10;;;1.40;;
50880;SDS011;36858;47.832;-3.800;2022-07-29T00:40:46;4.90;;;1.80;;
50880;SDS011;36858;47.832;-3.800;2022-07-29T00:43:13;2.73;;;1.17;;
50880;SDS011;36858;47.832;-3.800;2022-07-29T00:45:41;2.90;;;1.30;;
50880;SDS011;36858;47.832;-3.800;2022-07-29T00:48:08;3.20;;;1.10;;
50880;SDS011;36858;47.832;-3.800;2022-07-29T00:50:36;4.87;;;1.00;;
50880;SDS011;36858;47.832;-3.800;2022-07-29T00:53:04;2.37;;;0.90;;
50880;SDS011;36858;47.832;-3.800;2022-07-29T00:55:32;3.50;;;1.10;;
50880;SDS011;36858;47.832;-3.800;2022-07-29T00:57:59;1.50;;;1.03;;
50880;SDS011;36858;47.832;-3.800;2022-07-29T01:00:27;1.23;;;0.90;;
50880;SDS011;36858;47.832;-3.800;2022-07-29T01:02:57;3.10;;;1.00;;
50880;SDS011;36858;47.832;-3.800;2022-07-29T01:05:24;3.87;;;1.00;;
50880;SDS011;36858;47.832;-3.800;2022-07-29T01:08:13;1.40;;;1.07;;
50880;SDS011;36858;47.832;-3.800;2022-07-29T01:10:40;3.40;;;1.30;;
50880;SDS011;36858;47.832;-3.800;2022-07-29T01:13:08;2.47;;;1.30;;
50880;SDS011;36858;47.832;-3.800;2022-07-29T01:15:38;2.40;;;1.00;;
50880;SDS011;36858;47.832;-3.800;2022-07-29T01:18:42;3.77;;;1.50;;
50880;SDS011;36858;47.832;-3.800;2022-07-29T01:29:32;4.33;;;1.20;;
50880;SDS011;36858;47.832;-3.800;2022-07-29T01:32:07;2.47;;;0.90;;
50880;SDS011;36858;47.832;-3.800;2022-07-29T01:40:05;1.90;;;0.90;;
50880;SDS011;36858;47.832;-3.800;2022-07-29T01:42:44;1.23;;;0.97;;
50880;SDS011;36858;47.832;-3.800;2022-07-29T01:47:58;2.70;;;1.03;;
50880;SDS011;36858;47.832;-3.800;2022-07-29T01:50:36;2.90;;;1.10;;
50880;SDS011;36858;47.832;-3.800;2022-07-29T01:53:08;1.77;;;1.13;;
50880;SDS011;36858;47.832;-3.800;2022-07-29T01:55:37;1.37;;;1.17;;
50880;SDS011;36858;47.832;-3.800;2022-07-29T01:58:05;7.10;;;1.20;;
50880;SDS011;36858;47.832;-3.800;2022-07-29T02:00:33;2.70;;;1.07;;
50880;SDS011;36858;47.832;-3.800;2022-07-29T02:03:02;5.50;;;1.10;;
50880;SDS011;36858;47.832;-3.800;2022-07-29T02:05:32;4.03;;;1.27;;
50880;SDS011;36858;47.832;-3.800;2022-07-29T02:08:00;2.60;;;1.10;;
50880;SDS011;36858;47.832;-3.800;2022-07-29T02:10:29;2.07;;;1.00;;
50880;SDS011;36858;47.832;-3.800;2022-07-29T02:12:58;1.00;;;0.87;;
50880;SDS011;36858;47.832;-3.800;2022-07-29T02:15:27;4.67;;;1.37;;
50880;SDS011;36858;47.832;-3.800;2022-07-29T02:17:56;1.53;;;0.90;;
50880;SDS011;36858;47.832;-3.800;2022-07-29T02:20:26;1.50;;;1.03;;
50880;SDS011;36858;47.832;-3.800;2022-07-29T02:22:55;1.47;;;1.00;;
50880;SDS011;36858;47.832;-3.800;2022-07-29T02:25:23;1.13;;;0.90;;
50880;SDS011;36858;47.832;-3.800;2022-07-29T02:28:03;2.00;;;1.10;;
50880;SDS011;36858;47.832;-3.800;2022-07-29T02:30:30;2.20;;;1.20;;
50880;SDS011;36858;47.832;-3.800;2022-07-29T02:32:58;2.00;;;1.07;;
50880;SDS011;36858;47.832;-3.800;2022-07-29T02:35:25;1.03;;;1.00;;
50880;SDS011;36858;47.832;-3.800;2022-07-29T02:37:52;1.10;;;1.00;;
50880;SDS011;36858;47.832;-3.800;2022-07-29T02:40:38;1.77;;;1.10;;
50880;SDS011;36858;47.832;-3.800;2022-07-29T02:43:06;1.43;;;1.13;;
50880;SDS011;36858;47.832;-3.800;2022-07-29T02:45:34;2.67;;;1.03;;
50880;SDS011;36858;47.832;-3.800;2022-07-29T02:48:06;1.77;;;0.97;;
50880;SDS011;36858;47.832;-3.800;2022-07-29T02:50:38;2.50;;;1.10;;
50880;SDS011;36858;47.832;-3.800;2022-07-29T02:53:15;2.13;;;1.20;;
50880;SDS011;36858;47.832;-3.800;2022-07-29T02:55:46;2.70;;;1.20;;
50880;SDS011;36858;47.832;-3.800;2022-07-29T02:58:29;1.37;;;1.10;;
50880;SDS011;36858;47.832;-3.800;2022-07-29T03:01:01;4.30;;;1.30;;
50880;SDS011;36858;47.832;-3.800;2022-07-29T03:03:32;3.70;;;1.03;;
50880;SDS011;36858;47.832;-3.800;2022-07-29T03:06:01;2.50;;;1.20;;
50880;SDS011;36858;47.832;-3.800;2022-07-29T03:08:29;2.57;;;1.40;;
50880;SDS011;36858;47.832;-3.800;2022-07-29T03:10:57;6.20;;;1.30;;
50880;SDS011;36858;47.832;-3.800;2022-07-29T03:13:25;3.67;;;1.00;;
50880;SDS011;36858;47.832;-3.800;2022-07-29T03:15:52;2.93;;;1.20;;
50880;SDS011;36858;47.832;-3.800;2022-07-29T03:18:20;4.43;;;1.13;;
50880;SDS011;36858;47.832;-3.800;2022-07-29T03:20:48;3.37;;;1.13;;
50880;SDS011;36858;47.832;-3.800;2022-07-29T03:23:18;1.77;;;1.00;;
50880;SDS011;36858;47.832;-3.800;2022-07-29T03:25:46;1.90;;;1.10;;
50880;SDS011;36858;47.832;-3.800;2022-07-29T03:28:13;1.77;;;1.07;;
50880;SDS011;36858;47.832;-3.800;2022-07-29T03:30:41;2.10;;;1.50;;
50880;SDS011;36858;47.832;-3.800;2022-07-29T03:33:09;3.30;;;1.20;;
50880;SDS011;36858;47.832;-3.800;2022-07-29T03:35:39;1.47;;;1.03;;
50880;SDS011;36858;47.832;-3.800;2022-07-29T03:38:06;1.57;;;1.10;;
50880;SDS011;36858;47.832;-3.800;2022-07-29T03:40:48;3.17;;;1.40;;
50880;SDS011;36858;47.832;-3.800;2022-07-29T03:43:18;3.97;;;1.10;;
50880;SDS011;36858;47.832;-3.800;2022-07-29T03:45:47;3.90;;;1.33;;
50880;SDS011;36858;47.832;-3.800;2022-07-29T03:48:18;2.50;;;0.90;;
50880;SDS011;36858;47.832;-3.800;2022-07-29T03:50:47;1.37;;;0.97;;
50880;SDS011;36858;47.832;-3.800;2022-07-29T03:53:14;1.63;;;1.07;;
50880;SDS011;36858;47.832;-3.800;2022-07-29T03:55:43;2.50;;;1.40;;
50880;SDS011;36858;47.832;-3.800;2022-07-29T03:58:13;1.03;;;0.70;;
50880;SDS011;36858;47.832;-3.800;2022-07-29T04:00:40;4.93;;;1.00;;
50880;SDS011;36858;47.832;-3.800;2022-07-29T04:03:08;1.93;;;1.03;;
50880;SDS011;36858;47.832;-3.800;2022-07-29T04:05:37;1.30;;;1.20;;
50880;SDS011;36858;47.832;-3.800;2022-07-29T04:08:04;1.87;;;1.00;;
50880;SDS011;36858;47.832;-3.800;2022-07-29T04:10:31;3.77;;;1.50;;
50880;SDS011;36858;47.832;-3.800;2022-07-29T04:12:59;2.03;;;1.30;;
50880;SDS011;36858;47.832;-3.800;2022-07-29T04:15:26;2.13;;;0.97;;
50880;SDS011;36858;47.832;-3.800;2022-07-29T04:17:56;3.70;;;1.13;;
50880;SDS011;36858;47.832;-3.800;2022-07-29T04:20:24;2.97;;;1.27;;
50880;SDS011;36858;47.832;-3.800;2022-07-29T04:22:51;3.93;;;1.10;;
50880;SDS011;36858;47.832;-3.800;2022-07-29T04:25:17;2.20;;;0.97;;
50880;SDS011;36858;47.832;-3.800;2022-07-29T04:27:44;4.43;;;1.00;;
50880;SDS011;36858;47.832;-3.800;2022-07-29T04:30:27;3.30;;;1.30;;
50880;SDS011;36858;47.832;-3.800;2022-07-29T04:32:54;6.13;;;1.13;;
50880;SDS011;36858;47.832;-3.800;2022-07-29T04:35:21;2.70;;;1.20;;
50880;SDS011;36858;47.832;-3.800;2022-07-29T04:37:48;2.20;;;0.90;;
50880;SDS011;36858;47.832;-3.800;2022-07-29T04:40:15;4.77;;;1.23;;
50880;SDS011;36858;47.832;-3.800;2022-07-29T04:42:42;2.63;;;1.30;;
50880;SDS011;36858;47.832;-3.800;2022-07-29T04:45:12;1.03;;;0.90;;
50880;SDS011;36858;47.832;-3.800;2022-07-29T04:47:39;2.33;;;1.20;;
50880;SDS011;36858;47.832;-3.800;2022-07-29T04:50:07;2.03;;;1.00;;
50880;SDS011;36858;47.832;-3.800;2022-07-29T04:52:34;4.60;;;1.30;;
50880;SDS011;36858;47.832;-3.800;2022-07-29T04:55:02;2.50;;;1.13;;
50880;SDS011;36858;47.832;-3.800;2022-07-29T04:57:30;3.40;;;1.30;;
50880;SDS011;36858;47.832;-3.800;2022-07-29T04:59:57;5.67;;;1.50;;
50880;SDS011;36858;47.832;-3.800;2022-07-29T05:02:24;5.63;;;1.63;;
50880;SDS011;36858;47.832;-3.800;2022-07-29T05:04:51;3.33;;;1.30;;
50880;SDS011;36858;47.832;-3.800;2022-07-29T05:07:18;1.70;;;1.10;;
50880;SDS011;36858;47.832;-3.800;2022-07-29T05:09:45;3.57;;;1.50;;
50880;SDS011;36858;47.832;-3.800;2022-07-29T05:12:11;3.07;;;1.40;;
50880;SDS011;36858;47.832;-3.800;2022-07-29T05:14:38;2.70;;;1.50;;
50880;SDS011;36858;47.832;-3.800;2022-07-29T05:17:05;3.97;;;1.63;;
50880;SDS011;36858;47.832;-3.800;2022-07-29T05:19:32;3.43;;;1.50;;
50880;SDS011;36858;47.832;-3.800;2022-07-29T05:22:04;3.57;;;1.90;;
50880;SDS011;36858;47.832;-3.800;2022-07-29T05:24:31;4.03;;;1.20;;
50880;SDS011;36858;47.832;-3.800;2022-07-29T05:26:58;3.53;;;1.50;;
50880;SDS011;36858;47.832;-3.800;2022-07-29T05:29:25;3.57;;;1.33;;
50880;SDS011;36858;47.832;-3.800;2022-07-29T05:32:10;2.27;;;1.13;;
50880;SDS011;36858;47.832;-3.800;2022-07-29T05:34:37;3.47;;;1.10;;
50880;SDS011;36858;47.832;-3.800;2022-07-29T05:37:16;2.10;;;0.90;;
50880;SDS011;36858;47.832;-3.800;2022-07-29T05:39:44;2.97;;;1.30;;
50880;SDS011;36858;47.832;-3.800;2022-07-29T05:42:15;1.73;;;1.00;;
50880;SDS011;36858;47.832;-3.800;2022-07-29T05:44:42;1.53;;;1.20;;
50880;SDS011;36858;47.832;-3.800;2022-07-29T05:47:09;1.83;;;1.20;;
50880;SDS011;36858;47.832;-3.800;2022-07-29T05:49:37;1.17;;;1.00;;
50880;SDS011;36858;47.832;-3.800;2022-07-29T05:52:04;6.03;;;1.50;;
50880;SDS011;36858;47.832;-3.800;2022-07-29T05:54:31;3.70;;;1.07;;
50880;SDS011;36858;47.832;-3.800;2022-07-29T05:56:58;2.43;;;1.10;;
50880;SDS011;36858;47.832;-3.800;2022-07-29T05:59:25;2.70;;;1.00;;
50880;SDS011;36858;47.832;-3.800;2022-07-29T06:01:55;3.03;;;1.60;;
50880;SDS011;36858;47.832;-3.800;2022-07-29T06:04:24;1.00;;;0.90;;
50880;SDS011;36858;47.832;-3.800;2022-07-29T06:06:51;2.13;;;1.33;;
50880;SDS011;36858;47.832;-3.800;2022-07-29T06:09:18;1.63;;;0.90;;
50880;SDS011;36858;47.832;-3.800;2022-07-29T06:11:45;1.83;;;0.90;;
50880;SDS011;36858;47.832;-3.800;2022-07-29T06:14:12;4.57;;;1.10;;
50880;SDS011;36858;47.832;-3.800;2022-07-29T06:16:40;2.10;;;0.90;;
50880;SDS011;36858;47.832;-3.800;2022-07-29T06:19:07;1.20;;;1.10;;
50880;SDS011;36858;47.832;-3.800;2022-07-29T06:21:35;2.63;;;1.30;;
50880;SDS011;36858;47.832;-3.800;2022-07-29T06:24:07;4.33;;;1.20;;
50880;SDS011;36858;47.832;-3.800;2022-07-29T06:26:34;3.63;;;1.30;;
50880;SDS011;36858;47.832;-3.800;2022-07-29T06:29:05;1.70;;;1.27;;
50880;SDS011;36858;47.832;-3.800;2022-07-29T06:31:33;3.93;;;1.37;;
50880;SDS011;36858;47.832;-3.800;2022-07-29T06:34:00;5.17;;;1.60;;
50880;SDS011;36858;47.832;-3.800;2022-07-29T06:36:28;1.73;;;1.13;;
50880;SDS011;36858;47.832;-3.800;2022-07-29T06:38:56;3.07;;;1.57;;
50880;SDS011;36858;47.832;-3.800;2022-07-29T06:41:23;4.10;;;1.40;;
50880;SDS011;36858;47.832;-3.800;2022-07-29T06:43:50;5.37;;;1.70;;
50880;SDS011;36858;47.832;-3.800;2022-07-29T06:46:21;6.50;;;2.07;;
50880;SDS011;36858;47.832;-3.800;2022-07-29T06:48:50;3.23;;;1.30;;
50880;SDS011;36858;47.832;-3.800;2022-07-29T06:51:18;2.30;;;1.20;;
50880;SDS011;36858;47.832;-3.800;2022-07-29T06:53:48;1.70;;;1.17;;
50880;SDS011;36858;47.832;-3.800;2022-07-29T06:56:27;2.30;;;1.10;;
50880;SDS011;36858;47.832;-3.800;2022-07-29T06:58:54;1.70;;;1.10;;
50880;SDS011;36858;47.832;-3.800;2022-07-29T07:01:21;40.60;;;4.03;;
50880;SDS011;36858;47.832;-3.800;2022-07-29T07:03:48;4.53;;;1.20;;
50880;SDS011;36858;47.832;-3.800;2022-07-29T07:06:15;4.90;;;1.00;;
50880;SDS011;36858;47.832;-3.800;2022-07-29T07:08:42;3.50;;;1.20;;
50880;SDS011;36858;47.832;-3.800;2022-07-29T07:11:10;1.93;;;1.00;;
50880;SDS011;36858;47.832;-3.800;2022-07-29T07:13:37;4.93;;;1.30;;
50880;SDS011;36858;47.832;-3.800;2022-07-29T07:16:05;2.63;;;1.27;;
50880;SDS011;36858;47.832;-3.800;2022-07-29T07:18:32;2.27;;;1.20;;
50880;SDS011;36858;47.832;-3.800;2022-07-29T07:21:00;1.97;;;0.93;;
50880;SDS011;36858;47.832;-3.800;2022-07-29T07:23:28;1.80;;;1.00;;
50880;SDS011;36858;47.832;-3.800;2022-07-29T07:25:55;1.00;;;0.83;;
50880;SDS011;36858;47.832;-3.800;2022-07-29T07:28:22;1.83;;;0.80;;
50880;SDS011;36858;47.832;-3.800;2022-07-29T07:30:50;3.73;;;1.20;;
50880;SDS011;36858;47.832;-3.800;2022-07-29T07:33:18;2.37;;;1.00;;
50880;SDS011;36858;47.832;-3.800;2022-07-29T07:35:45;7.17;;;2.30;;
50880;SDS011;36858;47.832;-3.800;2022-07-29T07:38:12;2.10;;;0.90;;
50880;SDS011;36858;47.832;-3.800;2022-07-29T07:40:39;2.13;;;1.00;;
50880;SDS011;36858;47.832;-3.800;2022-07-29T07:43:07;3.47;;;1.20;;
50880;SDS011;36858;47.832;-3.800;2022-07-29T07:45:34;6.20;;;1.40;;
50880;SDS011;36858;47.832;-3.800;2022-07-29T07:48:04;5.40;;;0.93;;
50880;SDS011;36858;47.832;-3.800;2022-07-29T07:50:31;3.23;;;1.00;;
50880;SDS011;36858;47.832;-3.800;2022-07-29T07:52:58;5.40;;;0.90;;
50880;SDS011;36858;47.832;-3.800;2022-07-29T07:55:26;1.77;;;0.80;;
50880;SDS011;36858;47.832;-3.800;2022-07-29T07:57:53;1.83;;;1.10;;
50880;SDS011;36858;47.832;-3.800;2022-07-29T08:00:21;21.33;;;3.10;;
50880;SDS011;36858;47.832;-3.800;2022-07-29T08:02:49;10.43;;;1.83;;
50880;SDS011;36858;47.832;-3.800;2022-07-29T08:05:16;7.43;;;1.40;;
50880;SDS011;36858;47.832;-3.800;2022-07-29T08:07:45;8.37;;;1.00;;
50880;SDS011;36858;47.832;-3.800;2022-07-29T08:10:16;3.33;;;1.23;;
50880;SDS011;36858;47.832;-3.800;2022-07-29T08:13:03;12.67;;;3.17;;
50880;SDS011;36858;47.832;-3.800;2022-07-29T08:15:30;109.37;;;13.80;;
50880;SDS011;36858;47.832;-3.800;2022-07-29T08:17:57;24.23;;;5.47;;
50880;SDS011;36858;47.832;-3.800;2022-07-29T08:20:24;21.97;;;4.90;;
50880;SDS011;36858;47.832;-3.800;2022-07-29T08:22:52;21.10;;;3.20;;
50880;SDS011;36858;47.832;-3.800;2022-07-29T08:25:20;9.83;;;2.20;;
50880;SDS011;36858;47.832;-3.800;2022-07-29T08:27:47;31.60;;;6.00;;
50880;SDS011;36858;47.832;-3.800;2022-07-29T08:30:14;38.43;;;7.10;;
50880;SDS011;36858;47.832;-3.800;2022-07-29T08:32:41;17.33;;;2.37;;
50880;SDS011;36858;47.832;-3.800;2022-07-29T08:35:23;14.97;;;1.70;;
50880;SDS011;36858;47.832;-3.800;2022-07-29T08:37:50;10.83;;;1.80;;
50880;SDS011;36858;47.832;-3.800;2022-07-29T08:40:18;5.47;;;2.00;;
50880;SDS011;36858;47.832;-3.800;2022-07-29T08:42:57;15.23;;;2.60;;
50880;SDS011;36858;47.832;-3.800;2022-07-29T08:45:25;20.23;;;3.13;;
50880;SDS011;36858;47.832;-3.800;2022-07-29T08:47:52;4.77;;;1.70;;
50880;SDS011;36858;47.832;-3.800;2022-07-29T08:50:19;4.13;;;1.17;;
50880;SDS011;36858;47.832;-3.800;2022-07-29T08:52:46;6.50;;;1.17;;
50880;SDS011;36858;47.832;-3.800;2022-07-29T08:55:15;3.47;;;1.17;;
50880;SDS011;36858;47.832;-3.800;2022-07-29T08:57:46;2.40;;;0.93;;
50880;SDS011;36858;47.832;-3.800;2022-07-29T09:00:19;2.67;;;1.20;;
50880;SDS011;36858;47.832;-3.800;2022-07-29T09:02:48;1.20;;;1.00;;
50880;SDS011;36858;47.832;-3.800;2022-07-29T09:05:18;1.73;;;0.93;;
50880;SDS011;36858;47.832;-3.800;2022-07-29T09:07:45;21.00;;;14.07;;
50880;SDS011;36858;47.832;-3.800;2022-07-29T09:10:14;7.57;;;5.70;;
50880;SDS011;36858;47.832;-3.800;2022-07-29T09:12:44;5.67;;;3.60;;
50880;SDS011;36858;47.832;-3.800;2022-07-29T09:15:18;4.30;;;3.10;;
50880;SDS011;36858;47.832;-3.800;2022-07-29T09:17:45;5.47;;;1.93;;
50880;SDS011;36858;47.832;-3.800;2022-07-29T09:20:16;8.53;;;2.60;;
50880;SDS011;36858;47.832;-3.800;2022-07-29T09:22:45;20.43;;;2.73;;
50880;SDS011;36858;47.832;-3.800;2022-07-29T09:25:35;4.83;;;1.53;;
50880;SDS011;36858;47.832;-3.800;2022-07-29T09:28:07;5.13;;;1.80;;
50880;SDS011;36858;47.832;-3.800;2022-07-29T09:30:35;30.33;;;4.27;;
50880;SDS011;36858;47.832;-3.800;2022-07-29T09:33:03;14.57;;;2.20;;
50880;SDS011;36858;47.832;-3.800;2022-07-29T09:35:30;8.43;;;1.57;;
50880;SDS011;36858;47.832;-3.800;2022-07-29T09:37:58;2.00;;;1.57;;
50880;SDS011;36858;47.832;-3.800;2022-07-29T09:40:37;19.73;;;13.53;;
50880;SDS011;36858;47.832;-3.800;2022-07-29T09:43:10;10.20;;;5.10;;
50880;SDS011;36858;47.832;-3.800;2022-07-29T09:45:38;7.67;;;3.93;;
50880;SDS011;36858;47.832;-3.800;2022-07-29T09:48:16;5.33;;;3.20;;
50880;SDS011;36858;47.832;-3.800;2022-07-29T09:50:44;9.10;;;2.47;;
50880;SDS011;36858;47.832;-3.800;2022-07-29T09:53:21;8.77;;;2.30;;
50880;SDS011;36858;47.832;-3.800;2022-07-29T09:55:56;3.80;;;1.53;;
50880;SDS011;36858;47.832;-3.800;2022-07-29T09:58:24;3.60;;;1.20;;
50880;SDS011;36858;47.832;-3.800;2022-07-29T10:00:52;4.60;;;1.33;;
50880;SDS011;36858;47.832;-3.800;2022-07-29T10:03:20;3.47;;;1.40;;
50880;SDS011;36858;47.832;-3.800;2022-07-29T10:06:03;7.83;;;1.57;;
50880;SDS011;36858;47.832;-3.800;2022-07-29T10:08:39;4.90;;;1.17;;
50880;SDS011;36858;47.832;-3.800;2022-07-29T10:11:09;6.90;;;1.90;;
50880;SDS011;36858;47.832;-3.800;2022-07-29T10:13:40;6.47;;;2.70;;
50880;SDS011;36858;47.832;-3.800;2022-07-29T10:16:11;4.33;;;2.87;;
50880;SDS011;36858;47.832;-3.800;2022-07-29T10:18:40;4.30;;;3.10;;
50880;SDS011;36858;47.832;-3.800;2022-07-29T10:21:12;6.90;;;3.50;;
50880;SDS011;36858;47.832;-3.800;2022-07-29T10:24:00;5.90;;;1.80;;
50880;SDS011;36858;47.832;-3.800;2022-07-29T10:26:29;3.20;;;1.70;;
50880;SDS011;36858;47.832;-3.800;2022-07-29T10:28:56;1.70;;;1.00;;
50880;SDS011;36858;47.832;-3.800;2022-07-29T10:31:30;2.63;;;1.10;;
50880;SDS011;36858;47.832;-3.800;2022-07-29T10:34:23;4.00;;;1.03;;
50880;SDS011;36858;47.832;-3.800;2022-07-29T10:37:03;4.73;;;1.33;;
50880;SDS011;36858;47.832;-3.800;2022-07-29T10:42:19;6.93;;;1.30;;
50880;SDS011;36858;47.832;-3.800;2022-07-29T10:44:59;3.43;;;1.20;;
50880;SDS011;36858;47.832;-3.800;2022-07-29T10:47:27;2.30;;;1.13;;
50880;SDS011;36858;47.832;-3.800;2022-07-29T10:50:04;1.80;;;1.37;;
50880;SDS011;36858;47.832;-3.800;2022-07-29T10:55:37;3.37;;;0.93;;
50880;SDS011;36858;47.832;-3.800;2022-07-29T10:58:16;3.10;;;0.90;;
50880;SDS011;36858;47.832;-3.800;2022-07-29T11:00:51;4.13;;;1.13;;
50880;SDS011;36858;47.832;-3.800;2022-07-29T11:06:56;6.73;;;1.40;;
50880;SDS011;36858;47.832;-3.800;2022-07-29T11:09:29;3.33;;;1.10;;
50880;SDS011;36858;47.832;-3.800;2022-07-29T11:12:03;5.73;;;1.27;;
50880;SDS011;36858;47.832;-3.800;2022-07-29T11:14:57;5.87;;;1.70;;
50880;SDS011;36858;47.832;-3.800;2022-07-29T11:17:27;2.73;;;0.90;;
50880;SDS011;36858;47.832;-3.800;2022-07-29T11:23:17;4.47;;;1.50;;
50880;SDS011;36858;47.832;-3.800;2022-07-29T11:26:33;8.67;;;2.13;;
50880;SDS011;36858;47.832;-3.800;2022-07-29T11:28:51;13.30;;;1.80;;
50880;SDS011;36858;47.832;-3.800;2022-07-29T11:31:20;5.20;;;1.30;;
50880;SDS011;36858;47.832;-3.800;2022-07-29T11:40:07;2.20;;;1.10;;
50880;SDS011;36858;47.832;-3.800;2022-07-29T11:48:04;1.40;;;1.10;;
50880;SDS011;36858;47.832;-3.800;2022-07-29T11:50:53;3.43;;;1.23;;
50880;SDS011;36858;47.832;-3.800;2022-07-29T11:53:23;4.93;;;1.23;;
50880;SDS011;36858;47.832;-3.800;2022-07-29T11:55:53;2.70;;;1.00;;
50880;SDS011;36858;47.832;-3.800;2022-07-29T11:58:21;2.60;;;1.10;;
50880;SDS011;36858;47.832;-3.800;2022-07-29T12:00:50;1.70;;;1.00;;
50880;SDS011;36858;47.832;-3.800;2022-07-29T12:03:28;3.70;;;1.10;;
50880;SDS011;36858;47.832;-3.800;2022-07-29T12:06:02;2.50;;;0.97;;
50880;SDS011;36858;47.832;-3.800;2022-07-29T12:08:38;1.53;;;1.07;;
50880;SDS011;36858;47.832;-3.800;2022-07-29T12:11:14;1.43;;;0.97;;
50880;SDS011;36858;47.832;-3.800;2022-07-29T12:13:46;3.23;;;1.07;;
50880;SDS011;36858;47.832;-3.800;2022-07-29T12:16:14;4.83;;;0.93;;
50880;SDS011;36858;47.832;-3.800;2022-07-29T12:18:55;2.20;;;0.87;;
50880;SDS011;36858;47.832;-3.800;2022-07-29T12:21:24;2.93;;;1.20;;
50880;SDS011;36858;47.832;-3.800;2022-07-29T12:23:54;2.23;;;1.00;;
50880;SDS011;36858;47.832;-3.800;2022-07-29T12:26:30;1.77;;;0.90;;
50880;SDS011;36858;47.832;-3.800;2022-07-29T12:28:59;2.97;;;1.20;;
50880;SDS011;36858;47.832;-3.800;2022-07-29T12:31:28;5.27;;;2.00;;
50880;SDS011;36858;47.832;-3.800;2022-07-29T12:34:10;2.70;;;1.23;;
50880;SDS011;36858;47.832;-3.800;2022-07-29T12:36:39;2.57;;;1.07;;
50880;SDS011;36858;47.832;-3.800;2022-07-29T12:39:07;3.97;;;1.13;;
50880;SDS011;36858;47.832;-3.800;2022-07-29T12:41:35;2.53;;;1.13;;
50880;SDS011;36858;47.832;-3.800;2022-07-29T12:44:02;1.87;;;1.20;;
50880;SDS011;36858;47.832;-3.800;2022-07-29T12:46:31;2.63;;;1.00;;
50880;SDS011;36858;47.832;-3.800;2022-07-29T12:48:58;4.80;;;1.50;;
50880;SDS011;36858;47.832;-3.800;2022-07-29T12:51:28;3.13;;;1.20;;
50880;SDS011;36858;47.832;-3.800;2022-07-29T12:54:14;2.53;;;1.10;;
50880;SDS011;36858;47.832;-3.800;2022-07-29T12:56:43;4.87;;;1.23;;
50880;SDS011;36858;47.832;-3.800;2022-07-29T12:59:19;4.77;;;1.20;;
50880;SDS011;36858;47.832;-3.800;2022-07-29T13:01:48;4.83;;;0.97;;
50880;SDS011;36858;47.832;-3.800;2022-07-29T13:04:26;1.73;;;0.80;;
50880;SDS011;36858;47.832;-3.800;2022-07-29T13:07:01;3.20;;;1.30;;
50880;SDS011;36858;47.832;-3.800;2022-07-29T13:09:44;2.17;;;1.17;;
50880;SDS011;36858;47.832;-3.800;2022-07-29T13:12:14;3.40;;;1.33;;
50880;SDS011;36858;47.832;-3.800;2022-07-29T13:14:42;2.03;;;1.13;;
50880;SDS011;36858;47.832;-3.800;2022-07-29T13:17:14;6.37;;;2.20;;
50880;SDS011;36858;47.832;-3.800;2022-07-29T13:19:52;6.17;;;3.10;;
50880;SDS011;36858;47.832;-3.800;2022-07-29T13:22:20;7.00;;;2.73;;
50880;SDS011;36858;47.832;-3.800;2022-07-29T13:27:24;4.87;;;2.03;;
50880;SDS011;36858;47.832;-3.800;2022-07-29T13:29:56;4.27;;;2.07;;
50880;SDS011;36858;47.832;-3.800;2022-07-29T13:32:25;5.97;;;2.70;;
50880;SDS011;36858;47.832;-3.800;2022-07-29T13:34:58;6.47;;;2.73;;
50880;SDS011;36858;47.832;-3.800;2022-07-29T13:37:31;6.10;;;3.93;;
50880;SDS011;36858;47.832;-3.800;2022-07-29T13:40:00;4.97;;;2.13;;
50880;SDS011;36858;47.832;-3.800;2022-07-29T13:42:30;12.30;;;3.37;;
50880;SDS011;36858;47.832;-3.800;2022-07-29T13:44:58;4.20;;;1.80;;
50880;SDS011;36858;47.832;-3.800;2022-07-29T13:47:25;4.97;;;1.53;;
50880;SDS011;36858;47.832;-3.800;2022-07-29T13:49:58;3.63;;;1.40;;
50880;SDS011;36858;47.832;-3.800;2022-07-29T13:52:26;4.63;;;1.50;;
50880;SDS011;36858;47.832;-3.800;2022-07-29T13:54:53;4.13;;;1.37;;
50880;SDS011;36858;47.832;-3.800;2022-07-29T13:57:20;1.37;;;1.00;;
50880;SDS011;36858;47.832;-3.800;2022-07-29T13:59:47;2.40;;;1.40;;
50880;SDS011;36858;47.832;-3.800;2022-07-29T14:02:19;50.73;;;12.93;;
50880;SDS011;36858;47.832;-3.800;2022-07-29T14:04:51;37.43;;;7.00;;
50880;SDS011;36858;47.832;-3.800;2022-07-29T14:07:21;20.87;;;5.23;;
50880;SDS011;36858;47.832;-3.800;2022-07-29T14:09:49;54.73;;;10.70;;
50880;SDS011;36858;47.832;-3.800;2022-07-29T14:12:17;157.90;;;31.43;;
50880;SDS011;36858;47.832;-3.800;2022-07-29T14:14:44;113.17;;;17.80;;
50880;SDS011;36858;47.832;-3.800;2022-07-29T14:17:12;93.77;;;19.97;;
50880;SDS011;36858;47.832;-3.800;2022-07-29T14:19:40;138.30;;;24.73;;
50880;SDS011;36858;47.832;-3.800;2022-07-29T14:22:07;24.63;;;6.27;;
50880;SDS011;36858;47.832;-3.800;2022-07-29T14:24:36;18.13;;;5.03;;
50880;SDS011;36858;47.832;-3.800;2022-07-29T14:27:04;14.73;;;3.57;;
50880;SDS011;36858;47.832;-3.800;2022-07-29T14:29:31;36.20;;;8.10;;
50880;SDS011;36858;47.832;-3.800;2022-07-29T14:32:07;18.87;;;3.90;;
50880;SDS011;36858;47.832;-3.800;2022-07-29T14:34:35;21.87;;;5.40;;
50880;SDS011;36858;47.832;-3.800;2022-07-29T14:37:03;44.70;;;8.13;;
50880;SDS011;36858;47.832;-3.800;2022-07-29T14:39:32;27.37;;;5.00;;
50880;SDS011;36858;47.832;-3.800;2022-07-29T14:42:04;32.50;;;5.03;;
50880;SDS011;36858;47.832;-3.800;2022-07-29T14:44:32;28.77;;;5.90;;
50880;SDS011;36858;47.832;-3.800;2022-07-29T14:46:59;56.73;;;11.23;;
50880;SDS011;36858;47.832;-3.800;2022-07-29T14:49:33;23.13;;;7.20;;
50880;SDS011;36858;47.832;-3.800;2022-07-29T14:52:00;28.07;;;14.80;;
50880;SDS011;36858;47.832;-3.800;2022-07-29T14:54:27;13.30;;;10.30;;
50880;SDS011;36858;47.832;-3.800;2022-07-29T14:56:54;7.03;;;2.97;;
50880;SDS011;36858;47.832;-3.800;2022-07-29T14:59:24;4.67;;;2.10;;
50880;SDS011;36858;47.832;-3.800;2022-07-29T15:01:52;8.00;;;1.40;;
50880;SDS011;36858;47.832;-3.800;2022-07-29T15:04:19;2.57;;;1.63;;
50880;SDS011;36858;47.832;-3.800;2022-07-29T15:06:46;5.73;;;1.00;;
50880;SDS011;36858;47.832;-3.800;2022-07-29T15:09:13;4.37;;;1.50;;
50880;SDS011;36858;47.832;-3.800;2022-07-29T15:11:40;4.73;;;1.10;;
50880;SDS011;36858;47.832;-3.800;2022-07-29T15:14:07;9.40;;;1.33;;
50880;SDS011;36858;47.832;-3.800;2022-07-29T15:16:35;3.37;;;1.43;;
50880;SDS011;36858;47.832;-3.800;2022-07-29T15:19:03;3.03;;;1.10;;
50880;SDS011;36858;47.832;-3.800;2022-07-29T15:21:31;7.90;;;5.63;;
50880;SDS011;36858;47.832;-3.800;2022-07-29T15:23:58;25.73;;;20.10;;
50880;SDS011;36858;47.832;-3.800;2022-07-29T15:26:25;32.90;;;12.20;;
50880;SDS011;36858;47.832;-3.800;2022-07-29T15:28:52;17.73;;;7.00;;
50880;SDS011;36858;47.832;-3.800;2022-07-29T15:31:19;22.83;;;5.27;;